createdAt,value
2022-08-24T00:01:24.478Z,95.70
2022-08-24T00:03:55.248Z,97.30
2022-08-24T00:06:24.228Z,96.60
2022-08-24T00:08:53.558Z,95.90
2022-08-24T00:11:20.974Z,96.90
2022-08-24T00:13:48.778Z,95.60
2022-08-24T00:16:16.745Z,96.70
2022-08-24T00:18:44.674Z,96.80
2022-08-24T00:21:12.824Z,97.30
2022-08-24T00:23:40.270Z,97.60
2022-08-24T00:26:07.778Z,98.30
2022-08-24T00:28:35.267Z,98.60
2022-08-24T00:31:03.645Z,98.50
2022-08-24T00:33:34.744Z,98.40
2022-08-24T00:36:02.800Z,98.80
2022-08-24T00:38:35.777Z,99.10
2022-08-24T00:41:04.744Z,98.90
2022-08-24T00:43:33.173Z,99.10
2022-08-24T00:46:23.250Z,99.60
2022-08-24T00:48:56.912Z,99.70
2022-08-24T00:51:33.504Z,99.00
2022-08-24T00:54:10.390Z,99.40
2022-08-24T00:56:42.298Z,99.20
2022-08-24T00:59:14.332Z,99.50
2022-08-24T01:01:44.017Z,99.30
2022-08-24T01:04:15.733Z,99.40
2022-08-24T01:06:43.210Z,99.70
2022-08-24T01:09:10.248Z,99.50
2022-08-24T01:11:38.116Z,99.40
2022-08-24T01:14:06.257Z,99.40
2022-08-24T01:16:51.727Z,99.80
2022-08-24T01:19:27.794Z,99.90
2022-08-24T01:22:04.078Z,99.90
2022-08-24T01:24:31.179Z,99.90
2022-08-24T01:26:58.755Z,99.90
2022-08-24T01:29:28.801Z,99.90
2022-08-24T01:31:58.810Z,99.80
2022-08-24T01:34:26.003Z,99.90
2022-08-24T01:36:58.175Z,99.80
2022-08-24T01:39:59.098Z,99.90
2022-08-24T01:42:30.025Z,99.90
2022-08-24T01:44:57.277Z,99.70
2022-08-24T01:47:24.241Z,99.90
2022-08-24T01:49:51.499Z,99.90
2022-08-24T01:52:24.715Z,99.90
2022-08-24T01:54:54.545Z,99.90
2022-08-24T01:57:25.208Z,99.90
2022-08-24T01:59:52.971Z,99.90
2022-08-24T02:02:27.279Z,99.90
2022-08-24T02:04:55.331Z,99.90
2022-08-24T02:07:23.158Z,99.90
2022-08-24T02:09:50.671Z,99.90
2022-08-24T02:12:19.337Z,99.90
2022-08-24T02:14:46.428Z,99.90
2022-08-24T02:17:13.442Z,99.90
2022-08-24T02:19:40.460Z,99.90
2022-08-24T02:22:08.448Z,99.90
2022-08-24T02:24:37.841Z,99.90
2022-08-24T02:27:06.992Z,99.90
2022-08-24T02:29:34.842Z,99.90
2022-08-24T02:32:02.030Z,99.90
2022-08-24T02:34:29.214Z,99.90
2022-08-24T02:36:56.367Z,99.90
2022-08-24T02:39:23.493Z,99.90
2022-08-24T02:41:51.795Z,99.90
2022-08-24T02:44:19.890Z,99.90
2022-08-24T02:46:48.091Z,99.90
2022-08-24T02:49:16.389Z,99.90
2022-08-24T02:51:46.202Z,99.90
2022-08-24T02:54:19.529Z,99.90
2022-08-24T02:56:48.640Z,99.90
2022-08-24T02:59:16.886Z,99.90
2022-08-24T03:01:44.787Z,99.90
2022-08-24T03:04:13.323Z,99.90
2022-08-24T03:06:40.606Z,99.90
2022-08-24T03:09:08.291Z,99.90
2022-08-24T03:11:35.558Z,99.90
2022-08-24T03:14:02.792Z,99.90
2022-08-24T03:16:31.772Z,99.90
2022-08-24T03:18:59.645Z,99.90
2022-08-24T03:21:28.631Z,99.90
2022-08-24T03:23:56.878Z,99.90
2022-08-24T03:26:24.030Z,99.90
2022-08-24T03:28:52.033Z,99.90
2022-08-24T03:31:20.018Z,99.90
2022-08-24T03:33:48.586Z,99.90
2022-08-24T03:36:16.803Z,99.90
2022-08-24T03:38:44.045Z,99.90
2022-08-24T03:41:11.993Z,99.90
2022-08-24T03:43:46.700Z,99.90
2022-08-24T03:46:25.350Z,99.90
2022-08-24T03:48:54.703Z,99.90
2022-08-24T03:51:26.617Z,99.90
2022-08-24T03:53:55.369Z,99.90
2022-08-24T03:56:25.134Z,99.90
2022-08-24T03:58:53.600Z,99.90
2022-08-24T04:01:21.147Z,99.90
2022-08-24T04:03:50.314Z,99.90
2022-08-24T04:06:18.583Z,99.90
2022-08-24T04:08:45.640Z,99.90
2022-08-24T04:11:15.469Z,99.90
2022-08-24T04:13:46.046Z,99.90
2022-08-24T04:16:18.396Z,99.90
2022-08-24T04:18:46.830Z,99.90
2022-08-24T04:21:20.438Z,99.90
2022-08-24T04:23:48.194Z,99.90
2022-08-24T04:26:34.145Z,99.90
2022-08-24T04:29:09.516Z,99.90
2022-08-24T04:31:41.952Z,99.90
2022-08-24T04:34:10.343Z,99.90
2022-08-24T04:36:43.701Z,99.90
2022-08-24T04:39:10.850Z,99.90
2022-08-24T04:42:05.993Z,99.90
2022-08-24T04:44:37.807Z,99.90
2022-08-24T04:47:05.576Z,99.90
2022-08-24T04:49:33.578Z,99.90
2022-08-24T04:52:01.422Z,99.90
2022-08-24T04:54:28.968Z,99.90
2022-08-24T04:57:13.580Z,99.90
2022-08-24T04:59:44.346Z,99.90
2022-08-24T05:02:11.389Z,99.90
2022-08-24T05:04:38.609Z,99.90
2022-08-24T05:08:11.533Z,99.90
2022-08-24T05:10:40.609Z,99.90
2022-08-24T05:13:08.642Z,99.90
2022-08-24T05:15:36.976Z,99.90
2022-08-24T05:18:04.126Z,99.90
2022-08-24T05:20:31.242Z,99.90
2022-08-24T05:23:03.822Z,99.90
2022-08-24T05:25:32.442Z,99.90
2022-08-24T05:27:59.387Z,99.90
2022-08-24T05:30:27.166Z,99.90
2022-08-24T05:32:54.174Z,99.90
2022-08-24T05:35:21.794Z,99.90
2022-08-24T05:37:48.881Z,99.90
2022-08-24T05:40:18.826Z,99.90
2022-08-24T05:42:53.021Z,99.90
2022-08-24T05:45:20.329Z,99.90
2022-08-24T05:47:49.005Z,99.90
2022-08-24T05:50:35.963Z,99.90
2022-08-24T05:53:04.762Z,99.90
2022-08-24T05:55:32.102Z,99.90
2022-08-24T05:57:59.167Z,99.90
2022-08-24T06:00:27.033Z,99.90
2022-08-24T06:02:54.208Z,99.90
2022-08-24T06:05:22.434Z,99.90
2022-08-24T06:07:50.007Z,99.90
2022-08-24T06:10:35.975Z,99.90
2022-08-24T06:13:05.481Z,99.90
2022-08-24T06:15:32.925Z,99.90
2022-08-24T06:17:59.988Z,99.90
2022-08-24T06:20:27.303Z,99.90
2022-08-24T06:22:54.313Z,99.90
2022-08-24T06:25:41.514Z,99.90
2022-08-24T06:28:08.540Z,99.90
2022-08-24T06:30:35.706Z,99.90
2022-08-24T06:33:13.053Z,99.90
2022-08-24T06:35:47.160Z,99.90
2022-08-24T06:38:14.834Z,99.90
2022-08-24T06:40:45.286Z,99.90
2022-08-24T06:43:13.617Z,99.90
2022-08-24T06:45:51.324Z,99.90
2022-08-24T06:48:22.071Z,99.90
2022-08-24T06:50:50.525Z,99.90
2022-08-24T06:53:17.593Z,99.90
2022-08-24T06:55:58.678Z,99.90
2022-08-24T06:58:28.763Z,99.90
2022-08-24T07:00:57.099Z,99.90
2022-08-24T07:03:25.313Z,99.90
2022-08-24T07:06:00.371Z,99.90
2022-08-24T07:08:42.747Z,99.90
2022-08-24T07:11:14.772Z,99.90
2022-08-24T07:14:08.581Z,99.90
2022-08-24T07:16:41.179Z,99.90
2022-08-24T07:19:09.015Z,99.90
2022-08-24T07:21:36.142Z,99.90
2022-08-24T07:24:04.774Z,99.90
2022-08-24T07:26:35.369Z,99.90
2022-08-24T07:32:13.501Z,99.90
2022-08-24T07:34:43.723Z,99.90
2022-08-24T07:37:10.717Z,99.90
2022-08-24T07:39:41.391Z,99.90
2022-08-24T07:42:13.797Z,99.90
2022-08-24T07:44:45.075Z,99.90
2022-08-24T07:47:34.742Z,99.90
2022-08-24T07:50:03.104Z,99.90
2022-08-24T07:52:30.179Z,99.90
2022-08-24T07:54:57.230Z,99.90
2022-08-24T07:57:25.075Z,99.90
2022-08-24T07:59:52.503Z,99.90
2022-08-24T08:02:19.910Z,99.90
2022-08-24T08:04:56.574Z,99.90
2022-08-24T08:07:24.617Z,99.90
2022-08-24T08:09:52.426Z,99.90
2022-08-24T08:12:19.783Z,99.90
2022-08-24T08:14:57.485Z,99.90
2022-08-24T08:17:24.525Z,99.90
2022-08-24T08:19:51.730Z,99.90
2022-08-24T08:22:37.109Z,99.90
2022-08-24T08:25:27.500Z,99.90
2022-08-24T08:27:58.618Z,99.90
2022-08-24T08:30:32.752Z,99.90
2022-08-24T08:32:59.880Z,99.90
2022-08-24T08:35:27.314Z,99.90
2022-08-24T08:37:56.147Z,99.90
2022-08-24T08:41:01.732Z,99.90
2022-08-24T08:43:52.734Z,99.90
2022-08-24T08:46:53.058Z,99.90
2022-08-24T08:50:08.174Z,99.90
2022-08-24T08:52:46.484Z,99.90
2022-08-24T08:55:24.655Z,99.90
2022-08-24T08:58:16.144Z,99.90
2022-08-24T09:01:04.763Z,99.90
2022-08-24T09:03:50.994Z,99.90
2022-08-24T09:07:09.289Z,99.90
2022-08-24T09:10:27.166Z,97.30
2022-08-24T09:13:17.072Z,98.30
2022-08-24T09:16:10.490Z,96.70
2022-08-24T09:18:57.738Z,94.20
2022-08-24T09:22:03.064Z,90.60
2022-08-24T09:24:51.230Z,91.00
2022-08-24T09:27:42.456Z,90.30
2022-08-24T09:30:23.894Z,90.20
2022-08-24T09:33:23.364Z,91.10
2022-08-24T09:36:18.786Z,90.10
2022-08-24T09:39:04.661Z,89.20
2022-08-24T09:41:58.809Z,88.70
2022-08-24T09:44:44.810Z,87.70
2022-08-24T09:47:38.815Z,86.60
2022-08-24T09:50:29.831Z,85.00
2022-08-24T09:53:19.227Z,84.50
2022-08-24T09:56:01.191Z,84.90
2022-08-24T09:58:51.159Z,83.70
2022-08-24T10:01:46.677Z,82.10
2022-08-24T10:04:36.470Z,81.20
2022-08-24T10:07:24.194Z,79.70
2022-08-24T10:10:02.917Z,81.40
2022-08-24T10:12:49.322Z,79.90
2022-08-24T10:15:58.468Z,78.70
2022-08-24T10:19:02.988Z,80.40
2022-08-24T10:21:36.941Z,79.60
2022-08-24T10:24:18.933Z,77.30
2022-08-24T10:27:13.869Z,75.90
2022-08-24T10:29:44.042Z,75.70
2022-08-24T10:32:35.490Z,76.20
2022-08-24T10:35:20.309Z,75.60
2022-08-24T10:38:16.119Z,74.30
2022-08-24T10:41:01.983Z,74.00
2022-08-24T10:43:35.801Z,75.40
2022-08-24T10:46:36.517Z,74.20
2022-08-24T10:53:24.708Z,73.20
2022-08-24T10:56:19.697Z,70.20
2022-08-24T10:58:55.589Z,68.60
2022-08-24T11:01:27.860Z,67.10
2022-08-24T11:04:00.244Z,70.50
2022-08-24T11:06:32.875Z,69.00
2022-08-24T11:09:18.695Z,69.50
2022-08-24T11:16:06.171Z,66.80
2022-08-24T11:18:53.197Z,67.80
2022-08-24T11:21:33.608Z,65.80
2022-08-24T11:24:07.654Z,65.00
2022-08-24T11:26:57.822Z,62.60
2022-08-24T11:29:52.332Z,65.30
2022-08-24T11:32:32.664Z,64.90
2022-08-24T11:35:21.336Z,66.50
2022-08-24T11:37:50.005Z,65.50
2022-08-24T11:40:20.337Z,65.20
2022-08-24T11:42:56.967Z,65.00
2022-08-24T11:45:31.110Z,66.60
2022-08-24T11:48:17.162Z,64.50
2022-08-24T11:51:17.518Z,65.40
2022-08-24T11:54:03.991Z,65.80
2022-08-24T11:56:42.255Z,65.20
2022-08-24T11:59:55.307Z,64.70
2022-08-24T12:02:35.921Z,65.20
2022-08-24T12:05:21.154Z,64.70
2022-08-24T12:08:30.597Z,64.30
2022-08-24T12:11:08.962Z,66.10
2022-08-24T12:14:06.979Z,66.60
2022-08-24T12:16:43.074Z,64.60
2022-08-24T12:19:14.668Z,66.30
2022-08-24T12:21:46.425Z,65.00
2022-08-24T12:24:21.483Z,64.60
2022-08-24T12:26:57.338Z,65.40
2022-08-24T12:29:35.017Z,66.20
2022-08-24T12:32:19.376Z,66.30
2022-08-24T12:35:05.947Z,64.70
2022-08-24T12:38:30.630Z,65.30
2022-08-24T12:41:19.197Z,63.20
2022-08-24T12:43:52.998Z,63.00
2022-08-24T12:46:25.551Z,62.30
2022-08-24T12:49:26.409Z,62.80
2022-08-24T12:52:44.326Z,62.80
2022-08-24T12:55:14.123Z,62.80
2022-08-24T12:58:01.897Z,61.60
2022-08-24T13:00:36.379Z,61.50
2022-08-24T13:03:06.644Z,61.40
2022-08-24T13:05:44.098Z,61.70
2022-08-24T13:08:43.152Z,61.80
2022-08-24T13:11:34.756Z,61.40
2022-08-24T13:14:07.601Z,60.30
2022-08-24T13:17:05.798Z,59.20
2022-08-24T13:19:45.127Z,60.40
2022-08-24T13:22:12.833Z,60.80
2022-08-24T13:24:39.703Z,62.80
2022-08-24T13:27:12.830Z,63.10
2022-08-24T13:29:45.484Z,62.70
2022-08-24T13:32:31.657Z,62.30
2022-08-24T13:34:59.552Z,62.20
2022-08-24T13:37:28.501Z,61.20
2022-08-24T13:40:14.159Z,61.70
2022-08-24T13:42:58.417Z,61.60
2022-08-24T13:46:02.807Z,60.40
2022-08-24T13:48:57.427Z,59.50
2022-08-24T13:51:24.377Z,59.60
2022-08-24T13:54:03.427Z,59.30
2022-08-24T13:56:38.010Z,60.40
2022-08-24T13:59:43.367Z,60.30
2022-08-24T14:02:16.317Z,61.90
2022-08-24T14:05:01.380Z,62.10
2022-08-24T14:07:49.877Z,62.80
2022-08-24T14:10:32.608Z,64.50
2022-08-24T14:13:27.583Z,64.50
2022-08-24T14:16:24.143Z,65.50
2022-08-24T14:19:14.249Z,65.00
2022-08-24T14:21:57.032Z,64.30
2022-08-24T14:25:02.047Z,65.00
2022-08-24T14:27:35.126Z,65.00
2022-08-24T14:30:23.548Z,64.60
2022-08-24T14:32:59.613Z,63.90
2022-08-24T14:35:36.401Z,62.80
2022-08-24T14:38:15.677Z,62.00
2022-08-24T14:41:03.300Z,62.00
2022-08-24T14:44:07.781Z,61.80
2022-08-24T14:46:49.910Z,61.80
2022-08-24T14:49:23.900Z,62.30
2022-08-24T14:52:26.364Z,64.00
2022-08-24T14:55:08.656Z,64.20
2022-08-24T14:58:00.372Z,65.60
2022-08-24T15:01:14.601Z,67.00
2022-08-24T15:04:16.071Z,68.20
2022-08-24T15:06:58.976Z,68.00
2022-08-24T15:09:37.069Z,67.60
2022-08-24T15:12:38.377Z,67.00
2022-08-24T15:15:34.556Z,67.80
2022-08-24T15:18:37.211Z,66.50
2022-08-24T15:21:26.433Z,67.40
2022-08-24T15:24:09.746Z,66.50
2022-08-24T15:26:54.905Z,66.50
2022-08-24T15:29:25.581Z,67.00
2022-08-24T15:32:12.325Z,67.00
2022-08-24T15:34:42.757Z,67.40
2022-08-24T15:37:10.638Z,66.50
2022-08-24T15:39:37.869Z,66.90
2022-08-24T15:42:13.533Z,67.50
2022-08-24T15:44:44.164Z,67.10
2022-08-24T15:47:28.393Z,67.40
2022-08-24T15:50:01.615Z,66.30
2022-08-24T15:52:49.861Z,66.10
2022-08-24T15:56:11.029Z,66.60
2022-08-24T15:58:39.165Z,67.00
2022-08-24T16:01:30.693Z,67.00
2022-08-24T16:04:05.698Z,67.80
2022-08-24T16:06:32.629Z,68.50
2022-08-24T16:09:08.035Z,69.20
2022-08-24T16:11:39.680Z,68.80
2022-08-24T16:14:25.358Z,70.40
2022-08-24T16:16:53.675Z,71.20
2022-08-24T16:22:11.110Z,72.40
2022-08-24T16:24:40.933Z,73.60
2022-08-24T16:27:16.015Z,74.20
2022-08-24T16:29:50.265Z,73.40
2022-08-24T16:32:41.587Z,74.40
2022-08-24T16:35:21.596Z,73.50
2022-08-24T16:37:48.550Z,74.20
2022-08-24T16:40:16.042Z,74.60
2022-08-24T16:42:43.287Z,74.40
2022-08-24T16:45:15.013Z,74.80
2022-08-24T16:47:42.034Z,74.40
2022-08-24T16:50:11.304Z,74.60
2022-08-24T16:52:38.291Z,75.70
2022-08-24T16:55:05.830Z,76.30
2022-08-24T16:57:37.686Z,76.90
2022-08-24T17:00:13.762Z,77.10
2022-08-24T17:02:40.810Z,76.40
2022-08-24T17:05:08.243Z,76.70
2022-08-24T17:07:35.442Z,77.30
2022-08-24T17:10:06.885Z,78.00
2022-08-24T17:12:36.142Z,77.90
2022-08-24T17:15:07.959Z,78.70
2022-08-24T17:17:35.807Z,78.80
2022-08-24T17:20:03.398Z,79.40
2022-08-24T17:22:31.309Z,79.30
2022-08-24T17:24:58.286Z,79.80
2022-08-24T17:27:31.474Z,79.90
2022-08-24T17:30:02.865Z,80.20
2022-08-24T17:32:29.816Z,80.70
2022-08-24T17:34:56.962Z,80.70
2022-08-24T17:37:24.584Z,81.20
2022-08-24T17:39:57.271Z,81.30
2022-08-24T17:42:49.067Z,81.90
2022-08-24T17:45:13.137Z,82.30
2022-08-24T17:48:08.445Z,82.20
2022-08-24T17:50:40.502Z,82.80
2022-08-24T17:53:08.982Z,82.90
2022-08-24T17:55:36.155Z,83.60
2022-08-24T17:58:03.314Z,83.90
2022-08-24T18:00:30.413Z,84.30
2022-08-24T18:02:57.379Z,84.90
2022-08-24T18:05:24.830Z,85.10
2022-08-24T18:07:54.852Z,85.10
2022-08-24T18:10:28.179Z,85.30
2022-08-24T18:12:58.031Z,86.00
2022-08-24T18:15:34.651Z,85.90
2022-08-24T18:18:08.543Z,86.20
2022-08-24T18:20:38.893Z,86.50
2022-08-24T18:23:11.838Z,87.20
2022-08-24T18:25:51.198Z,87.00
2022-08-24T18:28:22.163Z,87.20
2022-08-24T18:30:51.595Z,87.20
2022-08-24T18:33:18.650Z,87.50
2022-08-24T18:35:46.939Z,88.00
2022-08-24T18:38:14.115Z,88.20
2022-08-24T18:40:50.276Z,88.40
2022-08-24T18:43:22.570Z,88.70
2022-08-24T18:45:50.042Z,89.00
2022-08-24T18:48:17.041Z,89.00
2022-08-24T18:50:44.110Z,89.50
2022-08-24T18:53:13.341Z,89.60
2022-08-24T18:55:42.535Z,89.60
2022-08-24T18:58:09.486Z,90.60
2022-08-24T19:00:36.515Z,90.20
2022-08-24T19:03:07.035Z,90.20
2022-08-24T19:05:34.673Z,91.00
2022-08-24T19:08:01.666Z,91.00
2022-08-24T19:10:33.249Z,90.90
2022-08-24T19:13:02.690Z,91.70
2022-08-24T19:15:39.521Z,92.10
2022-08-24T19:18:11.015Z,91.80
2022-08-24T19:20:47.997Z,92.70
2022-08-24T19:23:28.983Z,93.00
2022-08-24T19:25:57.033Z,93.40
2022-08-24T19:28:25.402Z,93.00
2022-08-24T19:31:01.775Z,94.10
2022-08-24T19:33:34.451Z,94.80
2022-08-24T19:36:01.706Z,95.10
2022-08-24T19:38:29.450Z,94.80
2022-08-24T19:40:57.878Z,95.00
2022-08-24T19:43:29.600Z,95.00
2022-08-24T19:46:05.501Z,95.70
2022-08-24T19:48:34.591Z,96.50
2022-08-24T19:51:04.004Z,96.90
2022-08-24T19:53:34.439Z,97.20
2022-08-24T19:56:01.838Z,97.00
2022-08-24T19:58:37.240Z,97.60
2022-08-24T20:01:10.597Z,97.20
2022-08-24T20:03:37.738Z,97.80
2022-08-24T20:06:04.990Z,98.00
2022-08-24T20:08:32.382Z,98.60
2022-08-24T20:11:00.621Z,99.70
2022-08-24T20:13:28.275Z,99.90
2022-08-24T20:15:56.515Z,99.90
2022-08-24T20:18:30.265Z,99.90
2022-08-24T20:20:58.132Z,99.90
2022-08-24T20:23:25.668Z,99.90
2022-08-24T20:25:53.540Z,99.90
2022-08-24T20:28:29.394Z,99.90
2022-08-24T20:30:57.138Z,99.90
2022-08-24T20:33:24.968Z,99.90
2022-08-24T20:35:55.689Z,99.90
2022-08-24T20:38:23.727Z,99.90
2022-08-24T20:40:52.179Z,99.90
2022-08-24T20:43:19.878Z,99.90
2022-08-24T20:45:51.432Z,99.90
2022-08-24T20:48:29.307Z,99.90
2022-08-24T20:50:56.908Z,99.90
2022-08-24T20:53:24.114Z,99.90
2022-08-24T20:55:51.152Z,99.90
2022-08-24T20:58:20.752Z,99.90
2022-08-24T21:00:48.665Z,99.90
2022-08-24T21:03:18.588Z,99.90
2022-08-24T21:05:46.813Z,99.90
2022-08-24T21:08:15.657Z,99.90
2022-08-24T21:10:43.523Z,99.90
2022-08-24T21:13:11.446Z,99.90
2022-08-24T21:15:39.498Z,99.90
2022-08-24T21:18:06.551Z,99.90
2022-08-24T21:20:33.636Z,99.90
2022-08-24T21:23:00.778Z,99.90
2022-08-24T21:25:27.913Z,99.90
2022-08-24T21:27:55.289Z,99.90
2022-08-24T21:30:23.020Z,99.90
2022-08-24T21:33:08.752Z,99.90
2022-08-24T21:35:36.786Z,99.90
2022-08-24T21:38:05.464Z,99.90
2022-08-24T21:40:35.627Z,99.90
2022-08-24T21:43:02.821Z,99.90
2022-08-24T21:45:36.337Z,99.90
2022-08-24T21:48:03.394Z,99.90
2022-08-24T21:50:30.394Z,99.90
2022-08-24T21:52:57.386Z,99.90
2022-08-24T21:55:26.266Z,99.90
2022-08-24T21:57:53.745Z,99.90
2022-08-24T22:00:23.315Z,99.90
2022-08-24T22:02:50.358Z,99.90
2022-08-24T22:05:18.257Z,99.90
2022-08-24T22:07:45.400Z,99.90
2022-08-24T22:10:13.576Z,99.90
2022-08-24T22:12:42.573Z,99.90
2022-08-24T22:15:12.140Z,99.90
2022-08-24T22:17:39.411Z,99.90
2022-08-24T22:20:07.274Z,99.90
2022-08-24T22:22:36.431Z,99.90
2022-08-24T22:25:05.088Z,99.90
2022-08-24T22:27:32.137Z,99.90
2022-08-24T22:29:59.312Z,99.90
2022-08-24T22:32:26.570Z,99.90
2022-08-24T22:34:53.533Z,99.90
2022-08-24T22:37:20.497Z,99.90
2022-08-24T22:39:47.566Z,99.90
2022-08-24T22:42:14.583Z,99.90
2022-08-24T22:44:41.585Z,99.90
2022-08-24T22:47:13.057Z,99.90
2022-08-24T22:49:45.990Z,99.90
2022-08-24T22:52:14.844Z,99.90
2022-08-24T22:54:41.997Z,99.90
2022-08-24T22:57:09.384Z,99.90
2022-08-24T22:59:39.446Z,99.90
2022-08-24T23:02:12.163Z,99.90
2022-08-24T23:04:42.319Z,99.90
2022-08-24T23:07:09.901Z,99.90
2022-08-24T23:09:44.652Z,99.90
2022-08-24T23:12:19.897Z,99.90
2022-08-24T23:14:46.873Z,99.90
2022-08-24T23:17:14.859Z,99.90
2022-08-24T23:20:00.310Z,99.90
2022-08-24T23:22:37.758Z,99.90
2022-08-24T23:25:07.414Z,99.90
2022-08-24T23:27:38.657Z,99.90
2022-08-24T23:30:12.115Z,99.90
2022-08-24T23:32:39.886Z,99.90
2022-08-24T23:35:07.223Z,99.90
2022-08-24T23:37:34.283Z,99.90
2022-08-24T23:40:01.433Z,99.90
2022-08-24T23:42:28.538Z,99.90
2022-08-24T23:44:55.573Z,99.90
2022-08-24T23:47:22.532Z,99.90
2022-08-24T23:49:50.983Z,99.90
2022-08-24T23:52:26.362Z,99.90
2022-08-24T23:54:55.656Z,99.90
2022-08-24T23:57:22.731Z,99.90
2022-08-24T23:59:49.733Z,99.90
